createdAt,value
2023-02-22T00:04:39.813Z,3.60
2023-02-22T00:10:02.045Z,4.07
2023-02-22T00:15:27.391Z,4.13
2023-02-22T00:20:49.955Z,4.30
2023-02-22T00:26:18.309Z,4.43
2023-02-22T00:31:41.250Z,4.40
2023-02-22T00:37:04.409Z,4.13
2023-02-22T00:42:26.644Z,4.43
2023-02-22T00:47:49.768Z,4.10
2023-02-22T00:53:14.333Z,4.30
2023-02-22T00:58:36.623Z,4.20
2023-02-22T01:03:59.259Z,3.90
2023-02-22T01:09:22.298Z,4.10
2023-02-22T01:14:44.821Z,3.60
2023-02-22T01:20:12.816Z,3.87
2023-02-22T01:25:35.997Z,4.90
2023-02-22T01:30:58.853Z,4.80
2023-02-22T01:36:22.544Z,4.37
2023-02-22T01:41:46.443Z,3.77
2023-02-22T01:47:09.226Z,3.27
2023-02-22T01:52:31.834Z,4.23
2023-02-22T01:57:54.379Z,3.80
2023-02-22T02:03:27.535Z,3.77
2023-02-22T02:08:49.976Z,3.97
2023-02-22T02:14:12.867Z,3.83
2023-02-22T02:19:47.184Z,3.90
2023-02-22T02:25:48.842Z,3.97
2023-02-22T02:31:48.977Z,4.37
2023-02-22T02:37:26.667Z,3.90
2023-02-22T02:42:58.090Z,4.33
2023-02-22T02:48:25.947Z,3.30
2023-02-22T02:53:51.403Z,3.43
2023-02-22T02:59:33.647Z,3.80
2023-02-22T03:05:20.961Z,3.97
2023-02-22T03:11:15.090Z,3.63
2023-02-22T03:17:04.576Z,4.13
2023-02-22T03:22:44.182Z,3.90
2023-02-22T03:28:11.850Z,3.57
2023-02-22T03:33:45.606Z,3.53
2023-02-22T03:39:16.142Z,3.40
2023-02-22T03:44:41.553Z,4.53
2023-02-22T03:50:18.197Z,3.40
2023-02-22T03:55:40.795Z,4.10
2023-02-22T04:01:05.330Z,3.63
2023-02-22T04:06:28.524Z,3.33
2023-02-22T04:11:51.994Z,3.83
2023-02-22T04:17:14.722Z,3.47
2023-02-22T04:22:37.202Z,3.50
2023-02-22T04:28:00.327Z,4.50
2023-02-22T04:33:42.938Z,4.87
2023-02-22T04:39:08.144Z,3.90
2023-02-22T04:44:30.938Z,5.03
2023-02-22T04:49:53.871Z,5.27
2023-02-22T04:55:16.827Z,4.87
2023-02-22T05:00:39.279Z,4.83
2023-02-22T05:06:02.542Z,4.07
2023-02-22T05:11:24.815Z,4.47
2023-02-22T05:16:49.869Z,4.27
2023-02-22T05:22:11.891Z,3.60
2023-02-22T05:27:34.490Z,3.50
2023-02-22T05:32:57.035Z,4.27
2023-02-22T05:38:19.531Z,4.50
2023-02-22T05:43:42.285Z,4.73
2023-02-22T05:49:04.326Z,5.13
2023-02-22T05:54:26.837Z,4.27
2023-02-22T05:59:49.088Z,5.10
2023-02-22T06:05:11.570Z,4.80
2023-02-22T06:10:34.484Z,4.53
2023-02-22T06:15:59.538Z,4.40
2023-02-22T06:21:22.097Z,4.13
2023-02-22T06:26:44.290Z,5.07
2023-02-22T06:32:06.809Z,3.67
2023-02-22T06:37:29.253Z,3.67
2023-02-22T06:42:51.513Z,4.07
2023-02-22T06:48:13.949Z,3.73
2023-02-22T06:53:36.402Z,4.07
2023-02-22T06:59:00.191Z,4.27
2023-02-22T07:04:24.144Z,3.93
2023-02-22T07:09:47.817Z,4.30
2023-02-22T07:15:10.440Z,4.60
2023-02-22T07:20:33.408Z,4.73
2023-02-22T07:25:55.700Z,4.40
2023-02-22T07:31:18.486Z,5.07
2023-02-22T07:36:41.712Z,4.90
2023-02-22T07:42:04.911Z,4.30
2023-02-22T07:47:32.532Z,4.93
2023-02-22T07:52:56.866Z,4.70
2023-02-22T07:58:23.082Z,4.87
2023-02-22T08:03:47.661Z,3.90
2023-02-22T08:09:10.111Z,4.37
2023-02-22T08:14:32.538Z,3.80
2023-02-22T08:19:55.098Z,3.87
2023-02-22T08:25:18.650Z,4.27
2023-02-22T08:30:44.972Z,3.97
2023-02-22T08:36:07.612Z,3.77
2023-02-22T08:41:30.461Z,4.03
2023-02-22T08:46:52.808Z,3.90
2023-02-22T08:52:15.062Z,3.80
2023-02-22T08:57:37.272Z,3.90
2023-02-22T09:03:01.561Z,2.97
2023-02-22T09:08:26.548Z,3.13
2023-02-22T09:13:49.882Z,3.03
2023-02-22T09:19:12.205Z,3.40
2023-02-22T09:24:34.911Z,3.67
2023-02-22T09:29:57.699Z,3.60
2023-02-22T09:35:20.512Z,3.63
2023-02-22T09:40:54.417Z,3.60
2023-02-22T09:46:37.237Z,3.50
2023-02-22T09:52:09.714Z,3.23
2023-02-22T09:57:37.367Z,3.20
2023-02-22T10:03:19.942Z,3.30
2023-02-22T10:08:45.122Z,3.43
2023-02-22T10:14:33.435Z,3.23
2023-02-22T10:19:59.995Z,3.43
2023-02-22T10:25:27.406Z,3.10
2023-02-22T10:31:00.936Z,3.00
2023-02-22T10:36:25.151Z,3.00
2023-02-22T10:41:55.612Z,3.23
2023-02-22T10:47:21.938Z,3.43
2023-02-22T10:52:44.585Z,3.00
2023-02-22T10:58:08.364Z,3.10
2023-02-22T11:03:33.295Z,2.60
2023-02-22T11:09:24.028Z,2.73
2023-02-22T11:14:46.376Z,2.27
2023-02-22T11:20:25.367Z,3.27
2023-02-22T11:25:48.771Z,2.77
2023-02-22T11:31:16.035Z,3.67
2023-02-22T11:36:46.817Z,2.80
2023-02-22T11:42:25.845Z,2.63
2023-02-22T11:47:59.086Z,2.40
2023-02-22T11:53:57.789Z,2.63
2023-02-22T11:59:21.180Z,2.63
2023-02-22T12:05:24.535Z,2.50
2023-02-22T12:11:14.476Z,2.90
2023-02-22T12:17:08.278Z,2.80
2023-02-22T12:22:34.934Z,2.77
2023-02-22T12:28:24.253Z,2.47
2023-02-22T12:34:15.865Z,3.37
2023-02-22T12:39:56.798Z,3.20
2023-02-22T12:45:30.857Z,3.00
2023-02-22T12:51:04.078Z,3.30
2023-02-22T12:56:33.946Z,2.73
2023-02-22T13:02:12.648Z,3.63
2023-02-22T13:07:57.964Z,3.73
2023-02-22T13:13:36.250Z,2.83
2023-02-22T13:19:04.680Z,2.90
2023-02-22T13:25:05.282Z,2.90
2023-02-22T13:30:45.656Z,2.87
2023-02-22T13:36:24.548Z,2.27
2023-02-22T13:42:00.865Z,2.63
2023-02-22T13:47:49.954Z,2.30
2023-02-22T13:53:17.078Z,3.67
2023-02-22T13:58:59.286Z,2.47
2023-02-22T14:04:27.556Z,2.07
2023-02-22T14:10:01.820Z,2.80
2023-02-22T14:15:29.989Z,2.10
2023-02-22T14:21:16.933Z,2.43
2023-02-22T14:26:41.466Z,2.47
2023-02-22T14:32:07.543Z,2.90
2023-02-22T14:37:41.319Z,2.97
2023-02-22T14:43:10.099Z,2.40
2023-02-22T14:48:45.410Z,2.57
2023-02-22T14:54:15.664Z,2.20
2023-02-22T15:00:08.156Z,2.23
2023-02-22T15:05:38.651Z,2.23
2023-02-22T15:11:02.412Z,2.00
2023-02-22T15:16:28.092Z,1.90
2023-02-22T15:21:53.990Z,3.00
2023-02-22T15:27:19.749Z,1.90
2023-02-22T15:32:57.059Z,2.30
2023-02-22T15:38:30.895Z,1.90
2023-02-22T15:44:05.485Z,1.60
2023-02-22T15:49:34.582Z,2.37
2023-02-22T15:54:56.870Z,1.77
2023-02-22T16:00:33.387Z,1.97
2023-02-22T16:05:57.183Z,1.70
2023-02-22T16:11:33.165Z,1.80
2023-02-22T16:17:29.650Z,2.33
2023-02-22T16:22:52.261Z,1.90
2023-02-22T16:28:27.097Z,1.97
2023-02-22T16:33:51.154Z,2.53
2023-02-22T16:39:27.338Z,2.37
2023-02-22T16:44:53.482Z,2.60
2023-02-22T16:50:17.587Z,2.20
2023-02-22T16:55:44.787Z,2.20
2023-02-22T17:01:07.425Z,2.23
2023-02-22T17:06:29.548Z,2.50
2023-02-22T17:11:53.602Z,2.57
2023-02-22T17:17:16.396Z,2.70
2023-02-22T17:22:38.972Z,2.67
2023-02-22T17:28:01.545Z,2.57
2023-02-22T17:33:26.828Z,4.20
2023-02-22T17:38:50.002Z,2.80
2023-02-22T17:44:12.652Z,2.30
2023-02-22T17:49:35.031Z,3.50
2023-02-22T17:54:57.502Z,3.60
2023-02-22T18:00:33.059Z,3.27
2023-02-22T18:05:58.362Z,3.17
2023-02-22T18:11:25.074Z,3.33
2023-02-22T18:16:47.575Z,5.00
2023-02-22T18:22:10.392Z,5.73
2023-02-22T18:27:32.696Z,4.80
2023-02-22T18:32:55.436Z,5.20
2023-02-22T18:38:25.788Z,4.63
2023-02-22T18:43:48.088Z,4.07
2023-02-22T18:49:14.106Z,3.60
2023-02-22T18:54:38.539Z,3.50
2023-02-22T19:00:01.019Z,3.40
2023-02-22T19:05:25.083Z,3.60
2023-02-22T19:10:50.765Z,3.40
2023-02-22T19:16:14.144Z,3.10
2023-02-22T19:21:37.591Z,3.10
2023-02-22T19:27:00.081Z,3.00
2023-02-22T19:32:23.549Z,3.20
2023-02-22T19:37:46.993Z,3.20
2023-02-22T19:43:09.700Z,3.77
2023-02-22T19:48:32.892Z,4.47
2023-02-22T19:54:11.333Z,3.33
2023-02-22T19:59:33.837Z,4.10
2023-02-22T20:04:56.573Z,4.93
2023-02-22T20:10:19.188Z,4.33
2023-02-22T20:15:43.630Z,4.50
2023-02-22T20:21:10.963Z,4.87
2023-02-22T20:26:35.884Z,5.10
2023-02-22T20:32:01.143Z,5.27
2023-02-22T20:37:26.187Z,5.87
2023-02-22T20:42:48.287Z,5.10
2023-02-22T20:48:12.259Z,6.13
2023-02-22T20:53:35.478Z,6.00
2023-02-22T20:59:01.437Z,6.03
2023-02-22T21:04:23.870Z,6.13
2023-02-22T21:09:46.244Z,7.10
2023-02-22T21:15:09.420Z,6.07
2023-02-22T21:20:31.851Z,6.93
2023-02-22T21:25:54.638Z,7.93
2023-02-22T21:31:17.272Z,6.83
2023-02-22T21:36:39.657Z,7.03
2023-02-22T21:42:02.869Z,7.50
2023-02-22T21:47:25.510Z,7.43
2023-02-22T21:52:48.898Z,8.63
2023-02-22T21:58:12.356Z,8.10
2023-02-22T22:03:36.424Z,8.77
2023-02-22T22:09:05.180Z,8.83
2023-02-22T22:14:28.184Z,8.77
2023-02-22T22:19:51.761Z,8.73
2023-02-22T22:25:17.199Z,9.27
2023-02-22T22:30:40.041Z,9.97
2023-02-22T22:36:03.987Z,9.57
2023-02-22T22:41:28.245Z,10.07
2023-02-22T22:46:54.844Z,10.10
2023-02-22T22:52:19.035Z,11.07
2023-02-22T22:57:42.067Z,9.47
2023-02-22T23:03:06.196Z,9.50
2023-02-22T23:08:29.533Z,10.17
2023-02-22T23:13:51.962Z,10.00
2023-02-22T23:19:15.780Z,10.07
2023-02-22T23:24:37.963Z,9.23
2023-02-22T23:30:00.108Z,9.90
2023-02-22T23:35:22.577Z,10.53
2023-02-22T23:40:46.060Z,10.13
2023-02-22T23:46:10.902Z,10.07
2023-02-22T23:51:39.595Z,10.73
2023-02-22T23:57:04.111Z,10.23
